Shaftsbury Center, Vermont
Current Conditions -  °F | °C
As of 6:54 PM on Wednesday 22 Oct 2014 (Local Time) from KDDH Reporting Station
Overcast Overcast  
Wind Chill: 45°   Ceiling: 3100
Heat Index: 49°   Visibility: 10mi
Dew Point: 45°   Wind: 9mph
Humidity: 86%   Direction: 350°N
Pressure: 29.97"   Gusts: NA
Location:  42.9815°N, 73.2071°W
Report Text: KDDH 222254Z AUTO 35008KT 10SM SCT012 OVC031 09/07 A2997 RMK AO2 SLP151 T00940072
Loading
Personal Weather Stations






























Interactive Weather Map New forecast layout! Learn more

10-Day Weather Forecast

Advertisements
Track Severe Weather on mobile